createdAt,value
2018-03-07T00:00:59.327Z,3.80
2018-03-07T00:03:26.844Z,3.90
2018-03-07T00:05:54.500Z,4.00
2018-03-07T00:08:22.260Z,4.00
2018-03-07T00:10:49.758Z,3.90
2018-03-07T00:13:17.479Z,3.90
2018-03-07T00:15:45.196Z,3.80
2018-03-07T00:18:12.703Z,3.90
2018-03-07T00:20:40.212Z,4.00
2018-03-07T00:23:07.875Z,3.90
2018-03-07T00:25:35.382Z,3.70
2018-03-07T00:28:02.891Z,3.60
2018-03-07T00:30:30.795Z,3.60
2018-03-07T00:32:58.303Z,3.60
2018-03-07T00:35:26.488Z,3.60
2018-03-07T00:37:54.159Z,3.60
2018-03-07T00:40:21.668Z,3.60
2018-03-07T00:42:49.419Z,3.70
2018-03-07T00:45:17.056Z,3.80
2018-03-07T00:47:44.637Z,3.90
2018-03-07T00:50:12.260Z,3.70
2018-03-07T00:52:39.772Z,3.70
2018-03-07T00:55:07.316Z,3.60
2018-03-07T00:57:34.823Z,3.60
2018-03-07T01:00:02.512Z,3.70
2018-03-07T01:02:30.034Z,3.60
2018-03-07T01:04:57.539Z,3.50
2018-03-07T01:07:25.038Z,3.60
2018-03-07T01:09:52.551Z,3.50
2018-03-07T01:12:20.153Z,3.40
2018-03-07T01:14:47.634Z,3.40
2018-03-07T01:17:15.216Z,3.50
2018-03-07T01:19:42.720Z,3.60
2018-03-07T01:22:10.239Z,3.30
2018-03-07T01:24:37.743Z,3.40
2018-03-07T01:27:05.261Z,3.40
2018-03-07T01:29:32.801Z,3.60
2018-03-07T01:32:00.414Z,3.40
2018-03-07T01:34:27.965Z,3.20
2018-03-07T01:36:55.635Z,3.20
2018-03-07T01:39:23.370Z,3.10
2018-03-07T01:41:50.888Z,3.10
2018-03-07T01:44:18.392Z,3.20
2018-03-07T01:46:45.930Z,3.30
2018-03-07T01:49:13.431Z,3.20
2018-03-07T01:51:52.940Z,3.00
2018-03-07T01:54:20.439Z,3.20
2018-03-07T01:56:48.172Z,3.20
2018-03-07T01:59:15.676Z,3.30
2018-03-07T02:01:43.184Z,3.30
2018-03-07T02:04:10.687Z,3.10
2018-03-07T02:06:38.306Z,3.30
2018-03-07T02:09:05.815Z,3.40
2018-03-07T02:11:33.328Z,3.50
2018-03-07T02:14:00.971Z,3.50
2018-03-07T02:16:28.482Z,3.60
2018-03-07T02:18:56.005Z,3.60
2018-03-07T02:21:23.652Z,3.60
2018-03-07T02:23:51.156Z,3.60
2018-03-07T02:26:18.659Z,3.40
2018-03-07T02:28:46.263Z,3.40
2018-03-07T02:31:16.691Z,3.30
2018-03-07T02:33:44.199Z,3.40
2018-03-07T02:36:23.663Z,3.40
2018-03-07T02:38:51.179Z,3.40
2018-03-07T02:41:18.718Z,3.40
2018-03-07T02:43:46.243Z,3.50
2018-03-07T02:46:13.858Z,3.60
2018-03-07T02:48:41.645Z,3.50
2018-03-07T02:51:09.179Z,3.40
2018-03-07T02:53:36.686Z,3.30
2018-03-07T02:56:04.299Z,3.40
2018-03-07T02:58:32.035Z,3.40
2018-03-07T03:00:59.542Z,3.40
2018-03-07T03:03:27.331Z,3.30
2018-03-07T03:05:54.852Z,3.40
2018-03-07T03:08:22.364Z,3.50
2018-03-07T03:13:23.586Z,3.30
2018-03-07T03:15:51.092Z,3.30
2018-03-07T03:18:18.778Z,3.20
2018-03-07T03:20:46.395Z,3.20
2018-03-07T03:23:14.952Z,3.10
2018-03-07T03:25:42.490Z,3.10
2018-03-07T03:28:10.943Z,3.20
2018-03-07T03:30:38.460Z,3.30
2018-03-07T03:33:05.998Z,3.40
2018-03-07T03:35:33.492Z,3.30
2018-03-07T03:38:01.233Z,3.30
2018-03-07T03:40:28.731Z,3.30
2018-03-07T03:42:56.252Z,3.40
2018-03-07T03:45:23.894Z,3.30
2018-03-07T03:47:51.391Z,3.20
2018-03-07T03:50:18.904Z,3.10
2018-03-07T03:52:46.422Z,3.10
2018-03-07T03:55:14.747Z,3.00
2018-03-07T03:57:42.275Z,3.00
2018-03-07T04:00:09.859Z,2.90
2018-03-07T04:02:37.373Z,3.00
2018-03-07T04:05:04.871Z,3.00
2018-03-07T04:07:32.380Z,3.20
2018-03-07T04:10:00.666Z,3.20
2018-03-07T04:12:28.735Z,3.20
2018-03-07T04:14:56.248Z,3.20
2018-03-07T04:17:23.868Z,3.20
2018-03-07T04:19:51.536Z,3.20
2018-03-07T04:22:19.146Z,3.30
2018-03-07T04:24:46.893Z,3.40
2018-03-07T04:27:14.655Z,3.20
2018-03-07T04:29:42.172Z,3.20
2018-03-07T04:32:09.676Z,3.30
2018-03-07T04:34:37.192Z,3.30
2018-03-07T04:37:04.751Z,3.10
2018-03-07T04:39:32.272Z,2.90
2018-03-07T04:42:00.172Z,3.00
2018-03-07T04:44:27.679Z,3.10
2018-03-07T04:46:55.192Z,3.00
2018-03-07T04:49:22.914Z,3.00
2018-03-07T04:51:50.443Z,2.90
2018-03-07T04:54:17.974Z,3.10
2018-03-07T04:56:45.486Z,3.10
2018-03-07T04:59:13.147Z,3.10
2018-03-07T05:01:40.765Z,3.10
2018-03-07T05:04:08.354Z,2.90
2018-03-07T05:06:35.861Z,3.00
2018-03-07T05:09:03.364Z,3.20
2018-03-07T05:11:30.878Z,3.30
2018-03-07T05:13:58.382Z,3.20
2018-03-07T05:16:25.938Z,3.10
2018-03-07T05:18:53.443Z,3.00
2018-03-07T05:21:21.148Z,3.00
2018-03-07T05:23:48.643Z,2.90
2018-03-07T05:26:16.161Z,2.70
2018-03-07T05:28:43.870Z,2.80
2018-03-07T05:31:11.388Z,2.80
2018-03-07T05:33:38.874Z,2.80
2018-03-07T05:36:07.170Z,3.00
2018-03-07T05:38:34.666Z,3.00
2018-03-07T05:41:02.202Z,2.90
2018-03-07T05:43:29.706Z,2.90
2018-03-07T05:45:57.234Z,3.00
2018-03-07T05:48:24.867Z,3.10
2018-03-07T05:50:52.465Z,3.00
2018-03-07T05:53:20.019Z,3.00
2018-03-07T05:55:47.785Z,1.30
2018-03-07T05:58:15.309Z,3.10
2018-03-07T06:00:44.048Z,3.10
2018-03-07T06:03:13.244Z,3.20
2018-03-07T06:05:41.048Z,3.20
2018-03-07T06:08:09.451Z,2.80
2018-03-07T06:10:36.952Z,2.80
2018-03-07T06:13:04.563Z,2.80
2018-03-07T06:15:32.168Z,2.70
2018-03-07T06:17:59.699Z,2.90
2018-03-07T06:20:27.491Z,2.70
2018-03-07T06:22:56.776Z,2.50
2018-03-07T06:25:24.278Z,2.60
2018-03-07T06:27:51.792Z,2.70
2018-03-07T06:30:19.460Z,2.60
2018-03-07T06:32:46.974Z,2.60
2018-03-07T06:35:14.496Z,2.70
2018-03-07T06:37:43.089Z,2.80
2018-03-07T06:40:10.592Z,2.80
2018-03-07T06:42:38.242Z,3.10
2018-03-07T06:45:05.741Z,2.90
2018-03-07T06:47:33.715Z,3.10
2018-03-07T06:50:01.260Z,3.60
2018-03-07T06:52:28.819Z,3.80
2018-03-07T06:54:56.322Z,3.70
2018-03-07T06:57:24.616Z,3.40
2018-03-07T06:59:52.269Z,3.40
2018-03-07T07:02:20.063Z,3.40
2018-03-07T07:04:47.827Z,3.20
2018-03-07T07:07:15.368Z,3.10
2018-03-07T07:09:43.372Z,2.90
2018-03-07T07:12:11.129Z,2.80
2018-03-07T07:14:38.783Z,2.90
2018-03-07T07:17:06.303Z,2.90
2018-03-07T07:19:34.633Z,2.80
2018-03-07T07:22:02.203Z,2.70
2018-03-07T07:24:29.715Z,2.70
2018-03-07T07:26:57.226Z,2.80
2018-03-07T07:29:24.755Z,2.80
2018-03-07T07:31:52.284Z,2.90
2018-03-07T07:34:19.805Z,2.80
2018-03-07T07:36:47.311Z,2.80
2018-03-07T07:39:15.331Z,2.70
2018-03-07T07:41:42.828Z,2.70
2018-03-07T07:44:10.344Z,2.70
2018-03-07T07:46:37.858Z,2.60
2018-03-07T07:49:05.368Z,2.70
2018-03-07T07:51:32.881Z,2.80
2018-03-07T07:54:00.673Z,2.70
2018-03-07T07:56:28.415Z,2.80
2018-03-07T07:58:56.181Z,2.80
2018-03-07T08:01:23.697Z,2.80
2018-03-07T08:03:51.400Z,2.90
2018-03-07T08:06:19.155Z,2.60
2018-03-07T08:08:46.680Z,2.40
2018-03-07T08:11:14.183Z,2.60
2018-03-07T08:13:41.716Z,2.30
2018-03-07T08:16:09.220Z,2.40
2018-03-07T08:18:36.738Z,2.50
2018-03-07T08:21:04.487Z,2.40
2018-03-07T08:23:31.988Z,2.50
2018-03-07T08:25:59.739Z,2.70
2018-03-07T08:28:27.244Z,2.80
2018-03-07T08:30:54.808Z,2.90
2018-03-07T08:33:22.323Z,2.90
2018-03-07T08:35:50.363Z,2.90
2018-03-07T08:38:17.871Z,2.90
2018-03-07T08:40:45.384Z,3.10
2018-03-07T08:43:13.007Z,3.20
2018-03-07T08:45:40.529Z,3.20
2018-03-07T08:48:08.042Z,3.20
2018-03-07T08:50:35.607Z,3.30
2018-03-07T08:53:03.295Z,3.30
2018-03-07T08:55:30.819Z,3.20
2018-03-07T08:57:58.580Z,3.40
2018-03-07T09:00:26.233Z,3.30
2018-03-07T09:02:53.736Z,3.30
2018-03-07T09:05:22.756Z,3.20
2018-03-07T09:07:50.882Z,3.30
2018-03-07T09:10:18.560Z,3.20
2018-03-07T09:12:46.312Z,3.20
2018-03-07T09:15:13.823Z,3.30
2018-03-07T09:17:41.376Z,3.30
2018-03-07T09:20:09.692Z,3.60
2018-03-07T09:22:37.423Z,3.60
2018-03-07T09:25:04.923Z,3.40
2018-03-07T09:27:32.592Z,3.10
2018-03-07T09:30:00.096Z,3.10
2018-03-07T09:32:27.611Z,3.20
2018-03-07T09:34:55.268Z,3.10
2018-03-07T09:37:22.779Z,3.20
2018-03-07T09:39:50.483Z,3.30
2018-03-07T09:42:18.003Z,3.30
2018-03-07T09:44:45.508Z,3.30
2018-03-07T09:47:13.180Z,3.40
2018-03-07T09:49:40.923Z,3.30
2018-03-07T09:52:08.699Z,3.10
2018-03-07T09:54:36.459Z,3.20
2018-03-07T09:57:03.983Z,3.10
2018-03-07T09:59:31.479Z,3.00
2018-03-07T10:01:59.159Z,3.20
2018-03-07T10:04:26.653Z,3.20
2018-03-07T10:06:54.118Z,3.20
2018-03-07T10:09:21.819Z,3.20
2018-03-07T10:11:49.330Z,3.20
2018-03-07T10:14:17.023Z,3.30
2018-03-07T10:16:44.536Z,3.20
2018-03-07T10:19:12.239Z,3.40
2018-03-07T10:21:39.754Z,3.20
2018-03-07T10:24:07.257Z,3.30
2018-03-07T10:26:34.921Z,3.40
2018-03-07T10:29:02.787Z,3.40
2018-03-07T10:31:30.296Z,3.50
2018-03-07T10:33:58.824Z,3.70
2018-03-07T10:36:26.333Z,3.70
2018-03-07T10:38:54.303Z,3.80
2018-03-07T10:41:21.816Z,3.80
2018-03-07T10:43:49.318Z,3.70
2018-03-07T10:46:16.823Z,3.60
2018-03-07T10:48:44.356Z,3.60
2018-03-07T10:51:11.848Z,3.80
2018-03-07T10:53:39.347Z,3.70
2018-03-07T10:56:06.855Z,3.80
2018-03-07T10:58:34.626Z,3.60
2018-03-07T11:01:02.128Z,3.70
2018-03-07T11:03:29.916Z,3.90
2018-03-07T11:05:57.422Z,4.00
2018-03-07T11:08:25.016Z,3.90
2018-03-07T11:10:52.515Z,3.90
2018-03-07T11:13:20.037Z,4.00
2018-03-07T11:15:47.567Z,4.10
2018-03-07T11:18:15.979Z,4.10
2018-03-07T11:20:43.680Z,4.10
2018-03-07T11:23:11.204Z,4.30
2018-03-07T11:25:39.097Z,4.40
2018-03-07T11:28:06.639Z,4.40
2018-03-07T11:30:34.314Z,4.40
2018-03-07T11:33:01.829Z,4.30
2018-03-07T11:35:29.388Z,4.00
2018-03-07T11:37:57.775Z,4.00
2018-03-07T11:40:25.372Z,4.00
2018-03-07T11:42:52.928Z,4.10
2018-03-07T11:45:20.589Z,3.80
2018-03-07T11:47:48.917Z,4.00
2018-03-07T11:50:16.456Z,4.10
2018-03-07T11:52:43.957Z,4.10
2018-03-07T11:55:11.468Z,4.40
2018-03-07T11:57:38.994Z,4.50
2018-03-07T12:00:06.675Z,4.60
2018-03-07T12:02:34.322Z,4.40
2018-03-07T12:05:01.840Z,4.30
2018-03-07T12:07:29.502Z,4.20
2018-03-07T12:09:57.012Z,4.20
2018-03-07T12:12:24.526Z,4.20
2018-03-07T12:14:52.039Z,4.20
2018-03-07T12:17:19.655Z,4.30
2018-03-07T12:19:47.310Z,4.40
2018-03-07T12:22:14.834Z,4.30
2018-03-07T12:24:42.341Z,4.20
2018-03-07T12:27:09.943Z,4.20
2018-03-07T12:29:38.492Z,4.20
2018-03-07T12:32:06.016Z,4.20
2018-03-07T12:34:33.546Z,4.10
2018-03-07T12:37:01.060Z,4.10
2018-03-07T12:39:28.559Z,4.00
2018-03-07T12:41:56.111Z,4.00
2018-03-07T12:44:23.620Z,4.00
2018-03-07T12:46:51.124Z,4.00
2018-03-07T12:49:18.711Z,4.10
2018-03-07T12:51:46.247Z,4.20
2018-03-07T12:54:13.747Z,4.20
2018-03-07T12:56:41.507Z,4.00
2018-03-07T12:59:09.196Z,4.00
2018-03-07T13:01:36.768Z,4.10
2018-03-07T13:04:04.273Z,4.10
2018-03-07T13:06:32.608Z,4.10
2018-03-07T13:09:00.107Z,4.10
2018-03-07T13:11:27.621Z,4.00
2018-03-07T13:13:55.113Z,4.00
2018-03-07T13:16:22.652Z,3.80
2018-03-07T13:18:50.363Z,3.90
2018-03-07T13:21:17.864Z,3.90
2018-03-07T13:23:45.391Z,4.00
2018-03-07T13:26:12.888Z,4.00
2018-03-07T13:28:40.403Z,4.10
2018-03-07T13:31:07.971Z,3.90
2018-03-07T13:33:36.384Z,3.90
2018-03-07T13:36:04.024Z,4.00
2018-03-07T13:38:31.539Z,3.90
2018-03-07T13:40:59.348Z,3.90
2018-03-07T13:43:26.856Z,3.90
2018-03-07T13:45:54.518Z,4.00
2018-03-07T13:48:22.319Z,3.90
2018-03-07T13:50:50.083Z,4.20
2018-03-07T13:53:17.847Z,4.10
2018-03-07T13:55:45.355Z,4.10
2018-03-07T13:58:12.879Z,4.00
2018-03-07T14:00:40.501Z,4.00
2018-03-07T14:03:08.028Z,4.10
2018-03-07T14:05:35.530Z,4.10
2018-03-07T14:08:03.204Z,4.20
2018-03-07T14:10:30.963Z,4.10
2018-03-07T14:12:58.724Z,4.00
2018-03-07T14:15:26.232Z,4.00
2018-03-07T14:17:54.504Z,3.90
2018-03-07T14:20:22.023Z,3.90
2018-03-07T14:22:49.511Z,3.90
2018-03-07T14:25:17.248Z,4.00
2018-03-07T14:27:47.694Z,3.80
2018-03-07T14:30:15.355Z,4.00
2018-03-07T14:32:43.067Z,4.10
2018-03-07T14:35:10.719Z,4.10
2018-03-07T14:37:38.512Z,4.10
2018-03-07T14:40:06.081Z,4.20
2018-03-07T14:42:34.708Z,4.00
2018-03-07T14:45:02.176Z,4.00
2018-03-07T14:47:29.680Z,4.00
2018-03-07T14:49:57.340Z,4.00
2018-03-07T14:52:24.966Z,4.00
2018-03-07T14:54:52.467Z,4.00
2018-03-07T14:57:19.972Z,4.10
2018-03-07T14:59:47.492Z,4.10
2018-03-07T15:02:15.228Z,4.00
2018-03-07T15:04:42.755Z,4.00
2018-03-07T15:07:10.269Z,3.80
2018-03-07T15:09:37.784Z,3.80
2018-03-07T15:12:05.333Z,3.80
2018-03-07T15:14:33.441Z,3.90
2018-03-07T15:17:00.944Z,4.00
2018-03-07T15:19:28.825Z,3.90
2018-03-07T15:21:56.839Z,3.90
2018-03-07T15:24:24.498Z,4.00
2018-03-07T15:26:52.122Z,4.10
2018-03-07T15:29:19.679Z,3.80
2018-03-07T15:31:47.187Z,3.90
2018-03-07T15:34:14.755Z,3.80
2018-03-07T15:36:43.024Z,3.80
2018-03-07T15:39:10.578Z,3.80
2018-03-07T15:41:38.215Z,3.80
2018-03-07T15:44:05.720Z,3.80
2018-03-07T15:46:33.281Z,3.70
2018-03-07T15:49:01.566Z,5.30
2018-03-07T15:51:29.080Z,3.80
2018-03-07T15:53:56.593Z,3.80
2018-03-07T15:56:24.164Z,3.90
2018-03-07T15:58:51.656Z,3.80
2018-03-07T16:01:19.176Z,3.60
2018-03-07T16:03:46.820Z,3.80
2018-03-07T16:06:14.315Z,3.60
2018-03-07T16:08:42.530Z,3.60
2018-03-07T16:11:11.073Z,3.60
2018-03-07T16:13:38.836Z,3.60
2018-03-07T16:16:06.597Z,3.70
2018-03-07T16:18:34.207Z,3.80
2018-03-07T16:21:02.770Z,3.90
2018-03-07T16:23:30.274Z,3.90
2018-03-07T16:25:58.039Z,3.90
2018-03-07T16:28:25.789Z,3.80
2018-03-07T16:30:53.295Z,3.60
2018-03-07T16:33:20.805Z,3.60
2018-03-07T16:35:48.396Z,3.70
2018-03-07T16:38:15.904Z,3.90
2018-03-07T16:40:44.347Z,3.80
2018-03-07T16:43:11.853Z,3.70
2018-03-07T16:45:39.859Z,3.50
2018-03-07T16:48:07.377Z,3.70
2018-03-07T16:50:35.693Z,3.80
2018-03-07T16:53:03.198Z,3.80
2018-03-07T16:55:30.704Z,3.90
2018-03-07T16:57:58.220Z,3.90
2018-03-07T17:00:25.742Z,4.00
2018-03-07T17:02:53.251Z,3.80
2018-03-07T17:05:20.772Z,4.30
2018-03-07T17:07:48.291Z,4.90
2018-03-07T17:10:15.996Z,4.70
2018-03-07T17:12:43.714Z,4.40
2018-03-07T17:15:11.196Z,4.20
2018-03-07T17:17:38.748Z,4.20
2018-03-07T17:20:06.273Z,4.90
2018-03-07T17:22:33.788Z,4.40
2018-03-07T17:25:01.315Z,4.00
2018-03-07T17:27:28.832Z,3.90
2018-03-07T17:29:56.410Z,3.90
2018-03-07T17:32:24.195Z,3.70
2018-03-07T17:34:51.700Z,3.60
2018-03-07T17:37:19.604Z,3.70
2018-03-07T17:39:47.669Z,3.70
2018-03-07T17:42:15.359Z,3.50
2018-03-07T17:44:43.438Z,3.30
2018-03-07T17:47:11.819Z,3.20
2018-03-07T17:49:40.450Z,3.40
2018-03-07T17:52:08.164Z,3.40
2018-03-07T17:54:35.875Z,3.50
2018-03-07T17:57:04.523Z,3.60
2018-03-07T17:59:32.811Z,3.70
2018-03-07T18:02:01.103Z,3.70
2018-03-07T18:04:28.603Z,3.70
2018-03-07T18:06:56.300Z,3.90
2018-03-07T18:09:24.006Z,3.90
2018-03-07T18:11:51.555Z,3.80
2018-03-07T18:14:19.135Z,3.70
2018-03-07T18:16:46.647Z,3.80
2018-03-07T18:19:14.144Z,4.00
2018-03-07T18:21:41.955Z,4.20
2018-03-07T18:24:09.705Z,4.30
2018-03-07T18:26:38.188Z,4.00
2018-03-07T18:29:05.840Z,3.90
2018-03-07T18:31:33.372Z,3.80
2018-03-07T18:34:01.046Z,3.60
2018-03-07T18:36:28.587Z,3.60
2018-03-07T18:38:56.113Z,3.60
2018-03-07T18:41:23.688Z,3.40
2018-03-07T18:43:51.204Z,3.40
2018-03-07T18:46:18.824Z,3.60
2018-03-07T18:48:47.002Z,3.50
2018-03-07T18:51:14.513Z,3.60
2018-03-07T18:53:42.015Z,3.50
2018-03-07T18:56:09.713Z,3.40
2018-03-07T18:58:37.456Z,3.40
2018-03-07T19:01:04.955Z,3.40
2018-03-07T19:03:32.575Z,3.40
2018-03-07T19:06:00.136Z,3.20
2018-03-07T19:08:27.651Z,3.20
2018-03-07T19:10:55.371Z,3.20
2018-03-07T19:13:22.874Z,3.20
2018-03-07T19:15:55.075Z,3.20
2018-03-07T19:18:22.591Z,3.30
2018-03-07T19:20:50.116Z,3.30
2018-03-07T19:23:17.885Z,3.40
2018-03-07T19:25:46.095Z,3.40
2018-03-07T19:28:13.608Z,3.30
2018-03-07T19:30:41.095Z,3.30
2018-03-07T19:33:08.640Z,3.40
2018-03-07T19:35:36.392Z,3.40
2018-03-07T19:38:03.896Z,3.40
2018-03-07T19:40:31.454Z,3.40
2018-03-07T19:42:59.703Z,3.30
2018-03-07T19:45:27.440Z,3.40
2018-03-07T19:47:54.940Z,3.50
2018-03-07T19:50:22.650Z,3.60
2018-03-07T19:52:50.141Z,3.50
2018-03-07T19:55:17.892Z,3.30
2018-03-07T19:57:45.590Z,3.30
2018-03-07T20:00:13.161Z,3.20
2018-03-07T20:02:40.620Z,3.20
2018-03-07T20:05:08.133Z,3.00
2018-03-07T20:07:35.770Z,3.10
2018-03-07T20:10:03.290Z,3.20
2018-03-07T20:12:30.987Z,3.10
2018-03-07T20:14:58.488Z,3.10
2018-03-07T20:17:26.159Z,3.10
2018-03-07T20:19:53.674Z,3.20
2018-03-07T20:22:21.179Z,3.20
2018-03-07T20:24:48.875Z,3.10
2018-03-07T20:27:16.393Z,3.10
2018-03-07T20:29:44.060Z,3.10
2018-03-07T20:32:11.891Z,3.00
2018-03-07T20:34:39.388Z,3.00
2018-03-07T20:37:07.092Z,2.90
2018-03-07T20:39:34.596Z,3.00
2018-03-07T20:42:02.277Z,2.90
2018-03-07T20:44:30.587Z,2.90
2018-03-07T20:46:58.253Z,2.90
2018-03-07T20:49:26.856Z,3.00
2018-03-07T20:51:54.591Z,3.00
2018-03-07T20:54:22.100Z,3.00
2018-03-07T20:56:49.836Z,2.90
2018-03-07T20:59:17.339Z,2.90
2018-03-07T21:01:44.899Z,2.80
2018-03-07T21:04:12.380Z,2.90
2018-03-07T21:06:39.899Z,2.90
2018-03-07T21:09:07.391Z,2.90
2018-03-07T21:11:35.297Z,3.00
2018-03-07T21:14:02.800Z,3.00
2018-03-07T21:16:30.375Z,2.90
2018-03-07T21:18:58.149Z,2.80
2018-03-07T21:21:25.645Z,2.70
2018-03-07T21:23:53.979Z,2.70
2018-03-07T21:26:21.498Z,2.80
2018-03-07T21:28:49.524Z,2.80
2018-03-07T21:31:17.029Z,2.90
2018-03-07T21:33:44.527Z,2.90
2018-03-07T21:36:12.034Z,2.90
2018-03-07T21:38:40.555Z,2.80
2018-03-07T21:41:08.322Z,2.80
2018-03-07T21:43:35.826Z,2.80
2018-03-07T21:46:03.538Z,2.90
2018-03-07T21:48:31.320Z,2.90
2018-03-07T21:50:59.071Z,2.80
2018-03-07T21:53:26.579Z,2.70
2018-03-07T21:55:54.291Z,2.80
2018-03-07T21:58:21.799Z,2.90
2018-03-07T22:00:49.829Z,2.90
2018-03-07T22:03:17.323Z,2.90
2018-03-07T22:05:45.013Z,2.90
2018-03-07T22:08:12.724Z,2.90
2018-03-07T22:10:40.258Z,2.90
2018-03-07T22:13:08.020Z,3.00
2018-03-07T22:15:35.515Z,3.10
2018-03-07T22:18:03.033Z,3.20
2018-03-07T22:20:30.532Z,3.00
2018-03-07T22:22:58.792Z,3.10
2018-03-07T22:25:26.302Z,3.10
2018-03-07T22:27:53.975Z,3.00
2018-03-07T22:30:21.768Z,3.00
2018-03-07T22:32:49.264Z,3.00
2018-03-07T22:35:16.944Z,3.00
2018-03-07T22:37:44.444Z,3.00
2018-03-07T22:40:11.957Z,3.00
2018-03-07T22:42:39.564Z,3.00
2018-03-07T22:45:07.303Z,2.90
2018-03-07T22:47:34.803Z,2.90
2018-03-07T22:50:02.415Z,2.80
2018-03-07T22:52:30.091Z,2.90
2018-03-07T22:54:57.851Z,2.90
2018-03-07T22:57:25.623Z,2.90
2018-03-07T22:59:53.148Z,2.90
2018-03-07T23:02:20.797Z,2.90
2018-03-07T23:04:48.304Z,3.00
2018-03-07T23:07:15.815Z,2.90
2018-03-07T23:09:43.486Z,2.90
2018-03-07T23:12:11.276Z,2.90
2018-03-07T23:14:38.813Z,2.90
2018-03-07T23:17:06.500Z,2.90
2018-03-07T23:19:34.264Z,2.80
2018-03-07T23:22:02.025Z,2.90
2018-03-07T23:24:29.530Z,2.90
2018-03-07T23:26:57.032Z,2.90
2018-03-07T23:29:24.669Z,2.90
2018-03-07T23:31:52.187Z,2.80
2018-03-07T23:34:19.791Z,2.80
2018-03-07T23:36:47.302Z,2.90
2018-03-07T23:39:15.754Z,2.90
2018-03-07T23:41:43.263Z,2.90
2018-03-07T23:44:10.795Z,2.90
2018-03-07T23:46:38.435Z,2.90
2018-03-07T23:49:05.939Z,2.90
2018-03-07T23:51:33.652Z,2.90
2018-03-07T23:54:01.146Z,2.90
2018-03-07T23:56:28.848Z,2.90
2018-03-07T23:58:56.636Z,2.90
